Time;durP1;ratioP1;P1;durP2;ratioP2;P2;SDS_P1;SDS_P2;PMS_P1;PMS_P2;Temp;Humidity;BMP_temperature;BMP_pressure;BME280_temperature;BME280_humidity;BME280_pressure;Samples;Min_cycle;Max_cycle;Signal;HPM_P1;HPM_P2
2023/06/13 00:02:28;;;;;;;;;;;23.20;58.20;;;;;;10367632;28;1120;-68
2023/06/13 00:07:23;;;;;;;;;;;23.20;58.10;;;;;;10368033;28;845;-68
2023/06/13 00:12:24;;;;;;;;;;;23.20;58.10;;;;;;10367485;28;1890;-68
2023/06/13 00:17:22;;;;;;;;;;;23.20;58.10;;;;;;10366419;28;1564;-68
2023/06/13 00:22:17;;;;;;;;;;;23.20;58.10;;;;;;10367048;28;1193;-68
2023/06/13 00:27:13;;;;;;;;;;;23.20;58.10;;;;;;10366876;28;987;-68
2023/06/13 00:32:09;;;;;;;;;;;23.10;58.10;;;;;;10366819;28;1909;-68
2023/06/13 00:37:04;;;;;;;;;;;23.20;58.10;;;;;;10366526;28;887;-68
2023/06/13 00:41:59;;;;;;;;;;;23.10;58.00;;;;;;10366517;28;941;-68
2023/06/13 00:46:56;;;;;;;;;;;23.20;58.00;;;;;;10367048;28;1018;-68
2023/06/13 00:51:58;;;;;;;;;;;23.10;57.90;;;;;;10372620;28;1965;-68
2023/06/13 00:56:54;;;;;;;;;;;23.10;58.00;;;;;;10375443;28;907;-68
2023/06/13 01:01:52;;;;;;;;;;;23.10;57.90;;;;;;10374595;28;840;-68
2023/06/13 01:06:50;;;;;;;;;;;23.10;57.90;;;;;;10373498;28;1166;-68
2023/06/13 01:11:45;;;;;;;;;;;23.10;58.00;;;;;;10374232;28;1914;-68
2023/06/13 01:16:41;;;;;;;;;;;23.10;58.00;;;;;;10374711;28;867;-68
2023/06/13 01:21:39;;;;;;;;;;;23.10;58.00;;;;;;10374229;28;1448;-68
2023/06/13 01:26:38;;;;;;;;;;;23.10;58.00;;;;;;10373752;28;817;-68
2023/06/13 01:31:36;;;;;;;;;;;23.10;58.00;;;;;;10373089;28;1902;-68
2023/06/13 01:36:32;;;;;;;;;;;23.10;58.00;;;;;;10374245;28;844;-68
2023/06/13 01:41:30;;;;;;;;;;;23.10;58.00;;;;;;10373763;28;880;-68
2023/06/13 01:46:28;;;;;;;;;;;23.00;57.80;;;;;;10372330;28;967;-68
2023/06/13 01:51:27;;;;;;;;;;;23.00;57.80;;;;;;10372681;28;1951;-68
2023/06/13 01:56:22;;;;;;;;;;;23.00;57.80;;;;;;10372623;28;894;-68
2023/06/13 02:01:19;;;;;;;;;;;23.00;57.80;;;;;;10370783;28;1320;-68
2023/06/13 02:06:17;;;;;;;;;;;23.00;57.80;;;;;;10371485;28;1336;-68
2023/06/13 02:11:12;;;;;;;;;;;23.00;57.80;;;;;;10371901;28;1898;-68
2023/06/13 02:16:08;;;;;;;;;;;23.00;57.80;;;;;;10370968;28;918;-68
2023/06/13 02:21:03;;;;;;;;;;;23.00;57.80;;;;;;10371358;28;1452;-68
2023/06/13 02:25:58;;;;;;;;;;;23.00;57.80;;;;;;10372011;28;777;-68
2023/06/13 02:30:54;;;;;;;;;;;22.90;57.70;;;;;;10370991;28;1922;-68
2023/06/13 02:35:53;;;;;;;;;;;23.00;57.80;;;;;;10370959;28;875;-68
2023/06/13 02:40:48;;;;;;;;;;;22.90;57.70;;;;;;10370835;28;790;-68
2023/06/13 02:45:44;;;;;;;;;;;22.90;57.70;;;;;;10371238;28;818;-68
2023/06/13 02:50:39;;;;;;;;;;;22.90;57.70;;;;;;10369360;28;1970;-68
2023/06/13 02:55:36;;;;;;;;;;;22.90;57.70;;;;;;10370209;28;933;-68
2023/06/13 03:00:32;;;;;;;;;;;22.90;57.60;;;;;;10370201;28;805;-68
2023/06/13 03:05:32;;;;;;;;;;;22.90;57.70;;;;;;10370552;28;908;-68
2023/06/13 03:10:28;;;;;;;;;;;22.90;57.70;;;;;;10369490;28;1957;-68
2023/06/13 03:15:23;;;;;;;;;;;22.90;57.70;;;;;;10369272;28;819;-68
2023/06/13 03:20:20;;;;;;;;;;;22.90;57.70;;;;;;10370400;28;813;-68
2023/06/13 03:25:17;;;;;;;;;;;22.90;57.60;;;;;;10369341;28;1076;-68
2023/06/13 03:30:13;;;;;;;;;;;22.90;57.70;;;;;;10369367;28;1910;-68
2023/06/13 03:35:08;;;;;;;;;;;22.80;57.60;;;;;;10369291;28;793;-68
2023/06/13 03:40:04;;;;;;;;;;;22.90;57.70;;;;;;10368472;28;909;-68
2023/06/13 03:45:02;;;;;;;;;;;22.90;57.70;;;;;;10368293;28;777;-68
2023/06/13 03:50:06;;;;;;;;;;;22.80;57.60;;;;;;10367997;28;1905;-68
2023/06/13 03:55:02;;;;;;;;;;;22.80;57.60;;;;;;10368869;28;849;-68
2023/06/13 03:59:57;;;;;;;;;;;22.80;57.70;;;;;;10368267;28;1046;-68
2023/06/13 04:04:52;;;;;;;;;;;22.80;57.60;;;;;;10367606;28;786;-68
2023/06/13 04:09:51;;;;;;;;;;;22.80;57.70;;;;;;10367503;28;1961;-68
2023/06/13 04:14:47;;;;;;;;;;;22.80;57.60;;;;;;10367282;28;848;-68
2023/06/13 04:19:45;;;;;;;;;;;22.80;57.60;;;;;;10368136;28;921;-68
2023/06/13 04:24:46;;;;;;;;;;;22.80;57.60;;;;;;10365648;28;1158;-68
2023/06/13 04:29:42;;;;;;;;;;;22.80;57.60;;;;;;10366710;28;1906;-68
2023/06/13 04:34:41;;;;;;;;;;;22.80;57.60;;;;;;10364428;28;1306;-68
2023/06/13 04:39:37;;;;;;;;;;;22.80;57.60;;;;;;10366608;28;776;-68
2023/06/13 04:44:33;;;;;;;;;;;22.70;57.50;;;;;;10367093;28;822;-68
2023/06/13 04:49:31;;;;;;;;;;;22.70;57.10;;;;;;10366334;28;1961;-68
2023/06/13 04:54:28;;;;;;;;;;;22.70;56.90;;;;;;10366321;28;1133;-68
2023/06/13 04:59:24;;;;;;;;;;;22.70;56.80;;;;;;10366119;28;1454;-68
2023/06/13 05:04:20;;;;;;;;;;;22.70;56.80;;;;;;10366780;28;833;-68
2023/06/13 05:09:16;;;;;;;;;;;22.70;56.70;;;;;;10366589;28;1898;-68
2023/06/13 05:14:12;;;;;;;;;;;22.60;56.70;;;;;;10365988;28;851;-68
2023/06/13 05:24:22;;;;;;;;;;;22.60;57.00;;;;;;10549841;22;2029;-68
2023/06/13 05:29:17;;;;;;;;;;;22.70;56.90;;;;;;10284286;28;1981;-68
2023/06/13 05:34:12;;;;;;;;;;;22.60;56.80;;;;;;10284308;28;833;-68
2023/06/13 05:39:08;;;;;;;;;;;22.60;56.90;;;;;;10290809;28;817;-68
2023/06/13 05:44:03;;;;;;;;;;;22.60;57.00;;;;;;10291135;28;801;-68
2023/06/13 05:48:58;;;;;;;;;;;22.60;57.00;;;;;;10291527;28;1977;-68
2023/06/13 05:53:54;;;;;;;;;;;22.60;57.10;;;;;;10290773;28;903;-68
2023/06/13 05:58:50;;;;;;;;;;;22.60;57.10;;;;;;10290593;28;779;-68
2023/06/13 06:03:46;;;;;;;;;;;22.60;57.10;;;;;;10290345;28;834;-68
2023/06/13 06:08:42;;;;;;;;;;;22.60;57.20;;;;;;10290888;28;795;-68
2023/06/13 06:13:37;;;;;;;;;;;22.60;57.20;;;;;;10290629;28;1898;-68
2023/06/13 06:18:32;;;;;;;;;;;22.60;57.40;;;;;;10289950;28;894;-68
2023/06/13 06:23:28;;;;;;;;;;;22.60;57.30;;;;;;10289831;28;1191;-68
2023/06/13 06:28:23;;;;;;;;;;;22.60;57.40;;;;;;10289458;28;810;-68
2023/06/13 06:33:20;;;;;;;;;;;22.60;57.40;;;;;;10289792;28;1910;-68
2023/06/13 06:38:15;;;;;;;;;;;22.60;57.50;;;;;;10289096;28;844;-68
2023/06/13 06:43:11;;;;;;;;;;;22.60;57.50;;;;;;10289541;28;775;-68
2023/06/13 06:48:07;;;;;;;;;;;22.60;57.60;;;;;;10288413;28;875;-66
2023/06/13 06:53:02;;;;;;;;;;;22.50;57.50;;;;;;10288863;28;1879;-68
2023/06/13 06:57:58;;;;;;;;;;;22.50;57.60;;;;;;10288993;28;865;-68
2023/06/13 07:02:54;;;;;;;;;;;22.50;57.80;;;;;;10288150;28;912;-67
2023/06/13 07:07:50;;;;;;;;;;;22.60;57.70;;;;;;10288669;28;836;-73
2023/06/13 07:12:45;;;;;;;;;;;22.60;57.80;;;;;;10288259;28;1906;-75
2023/06/13 07:17:41;;;;;;;;;;;22.50;57.80;;;;;;10287467;28;1170;-70
2023/06/13 07:22:36;;;;;;;;;;;22.60;57.80;;;;;;10288088;28;1144;-70
2023/06/13 07:27:31;;;;;;;;;;;22.60;57.80;;;;;;10287147;28;772;-69
2023/06/13 07:32:27;;;;;;;;;;;22.60;57.90;;;;;;10286821;28;1902;-70
2023/06/13 07:37:22;;;;;;;;;;;22.60;58.00;;;;;;10287374;28;925;-70
2023/06/13 07:42:17;;;;;;;;;;;22.50;58.00;;;;;;10287179;28;818;-72
2023/06/13 07:47:13;;;;;;;;;;;22.50;58.10;;;;;;10286953;28;936;-69
2023/06/13 07:52:08;;;;;;;;;;;22.50;58.20;;;;;;10286166;28;1910;-69
2023/06/13 07:57:04;;;;;;;;;;;22.50;58.60;;;;;;10286061;28;894;-69
2023/06/13 08:01:59;;;;;;;;;;;22.60;58.70;;;;;;10286292;28;867;-68
2023/06/13 08:06:55;;;;;;;;;;;22.50;58.70;;;;;;10285724;28;876;-68
2023/06/13 08:11:50;;;;;;;;;;;22.50;58.70;;;;;;10285455;28;1959;-69
2023/06/13 08:16:46;;;;;;;;;;;22.60;58.90;;;;;;10285396;28;766;-67
2023/06/13 08:21:42;;;;;;;;;;;22.50;58.70;;;;;;10284974;28;1208;-70
2023/06/13 08:26:38;;;;;;;;;;;22.50;58.80;;;;;;10284447;28;961;-69
2023/06/13 08:31:33;;;;;;;;;;;22.50;58.70;;;;;;10284808;28;1975;-69
2023/06/13 08:36:28;;;;;;;;;;;22.50;58.50;;;;;;10284917;28;769;-70
2023/06/13 08:41:24;;;;;;;;;;;22.50;58.90;;;;;;10284802;28;895;-69
2023/06/13 08:46:19;;;;;;;;;;;22.50;58.90;;;;;;10284661;28;875;-69
2023/06/13 08:51:16;;;;;;;;;;;22.50;59.10;;;;;;10284176;28;1902;-70
2023/06/13 08:56:12;;;;;;;;;;;22.50;58.80;;;;;;10285006;28;930;-70
2023/06/13 09:01:07;;;;;;;;;;;22.40;58.80;;;;;;10285269;28;821;-69
2023/06/13 09:06:04;;;;;;;;;;;22.50;59.00;;;;;;10284278;28;866;-69
2023/06/13 09:11:00;;;;;;;;;;;22.50;59.10;;;;;;10285881;28;1964;-69
2023/06/13 09:15:55;;;;;;;;;;;22.50;59.10;;;;;;10291718;28;850;-69
2023/06/13 09:20:50;;;;;;;;;;;22.50;59.20;;;;;;10291610;28;1206;-69
2023/06/13 09:25:46;;;;;;;;;;;22.40;59.10;;;;;;10291897;28;852;-70
2023/06/13 09:30:41;;;;;;;;;;;22.50;59.20;;;;;;10291555;28;1961;-69
2023/06/13 09:35:37;;;;;;;;;;;22.50;59.30;;;;;;10291531;28;876;-69
2023/06/13 09:40:32;;;;;;;;;;;22.40;59.30;;;;;;10291358;28;892;-69
2023/06/13 09:45:28;;;;;;;;;;;22.50;59.50;;;;;;10291164;28;817;-69
2023/06/13 09:50:23;;;;;;;;;;;22.40;59.40;;;;;;10291425;28;1950;-69
2023/06/13 09:55:20;;;;;;;;;;;22.40;59.60;;;;;;10291321;28;896;-70
2023/06/13 10:00:15;;;;;;;;;;;22.40;59.60;;;;;;10290598;28;856;-70
2023/06/13 10:05:10;;;;;;;;;;;22.40;59.70;;;;;;10290387;28;929;-69
2023/06/13 10:10:06;;;;;;;;;;;22.40;59.70;;;;;;10290149;28;1952;-69
2023/06/13 10:15:01;;;;;;;;;;;22.40;59.70;;;;;;10290014;28;987;-69
2023/06/13 10:19:57;;;;;;;;;;;22.40;59.70;;;;;;10290674;28;789;-70
2023/06/13 10:24:52;;;;;;;;;;;22.40;59.70;;;;;;10288611;28;1364;-70
2023/06/13 10:29:47;;;;;;;;;;;22.40;59.70;;;;;;10290586;28;1909;-68
2023/06/13 10:34:43;;;;;;;;;;;22.40;59.90;;;;;;10289890;28;1161;-69
2023/06/13 10:39:38;;;;;;;;;;;22.40;59.80;;;;;;10289761;28;799;-68
2023/06/13 10:44:34;;;;;;;;;;;22.40;59.60;;;;;;10288941;28;878;-69
2023/06/13 10:49:29;;;;;;;;;;;22.40;59.50;;;;;;10288658;28;1951;-69
2023/06/13 10:54:25;;;;;;;;;;;22.40;59.50;;;;;;10289235;28;891;-69
2023/06/13 10:59:21;;;;;;;;;;;22.40;59.40;;;;;;10288358;28;812;-69
2023/06/13 11:04:16;;;;;;;;;;;22.40;59.40;;;;;;10287606;28;914;-69
2023/06/13 11:09:11;;;;;;;;;;;22.40;59.40;;;;;;10288478;28;1957;-69
2023/06/13 11:14:07;;;;;;;;;;;22.40;59.30;;;;;;10287795;28;872;-67
2023/06/13 11:19:02;;;;;;;;;;;22.40;59.30;;;;;;10287514;28;827;-68
2023/06/13 11:23:58;;;;;;;;;;;22.40;59.20;;;;;;10288032;28;1237;-68
2023/06/13 11:28:54;;;;;;;;;;;22.40;59.30;;;;;;10287908;28;889;-69
2023/06/13 11:33:49;;;;;;;;;;;22.30;59.30;;;;;;10287112;28;1985;-68
2023/06/13 11:38:45;;;;;;;;;;;22.30;59.30;;;;;;10287390;28;801;-69
2023/06/13 11:43:40;;;;;;;;;;;22.30;59.40;;;;;;10286583;28;953;-68
2023/06/13 11:48:36;;;;;;;;;;;22.30;59.50;;;;;;10286412;28;841;-69
2023/06/13 11:53:31;;;;;;;;;;;22.30;59.50;;;;;;10287133;28;1910;-69
2023/06/13 11:58:26;;;;;;;;;;;22.30;59.50;;;;;;10286328;28;967;-69
2023/06/13 12:03:23;;;;;;;;;;;22.30;59.40;;;;;;10260566;28;1036;-69
2023/06/13 12:08:18;;;;;;;;;;;22.30;59.50;;;;;;10244249;28;818;-69
2023/06/13 12:13:14;;;;;;;;;;;22.30;59.50;;;;;;10244377;28;1974;-68
2023/06/13 12:18:09;;;;;;;;;;;22.30;59.40;;;;;;10244008;28;909;-69
2023/06/13 12:23:07;;;;;;;;;;;22.30;59.50;;;;;;10244534;28;1369;-68
2023/06/13 12:28:03;;;;;;;;;;;22.30;59.40;;;;;;10244871;28;1698;-69
2023/06/13 12:32:58;;;;;;;;;;;22.30;59.40;;;;;;10244459;28;1922;-69
2023/06/13 12:37:54;;;;;;;;;;;22.30;59.30;;;;;;10243996;28;771;-69
2023/06/13 12:42:50;;;;;;;;;;;22.30;59.30;;;;;;10243513;28;868;-68
2023/06/13 12:47:46;;;;;;;;;;;22.30;59.30;;;;;;10243035;28;899;-69
2023/06/13 12:52:41;;;;;;;;;;;22.30;59.30;;;;;;10242871;28;1902;-68
2023/06/13 12:57:37;;;;;;;;;;;22.30;59.20;;;;;;10244244;28;872;-69
2023/06/13 13:02:32;;;;;;;;;;;22.30;59.10;;;;;;10243373;28;979;-69
2023/06/13 13:07:28;;;;;;;;;;;22.30;59.00;;;;;;10243452;28;857;-68
2023/06/13 13:12:23;;;;;;;;;;;22.30;59.10;;;;;;10242692;28;1898;-69
2023/06/13 13:17:19;;;;;;;;;;;22.30;59.10;;;;;;10243332;28;899;-69
2023/06/13 13:22:14;;;;;;;;;;;22.30;59.00;;;;;;10243279;28;1240;-69
2023/06/13 13:27:10;;;;;;;;;;;22.30;59.50;;;;;;10243392;28;940;-69
2023/06/13 13:32:05;;;;;;;;;;;22.30;58.90;;;;;;10242348;28;1980;-69
2023/06/13 13:37:01;;;;;;;;;;;22.30;58.90;;;;;;10242384;28;897;-69
2023/06/13 13:41:56;;;;;;;;;;;22.30;58.90;;;;;;10243442;28;854;-69
2023/06/13 13:46:51;;;;;;;;;;;22.40;59.00;;;;;;10242842;28;795;-69
2023/06/13 13:51:48;;;;;;;;;;;22.30;58.80;;;;;;10243193;28;1910;-69
2023/06/13 13:56:43;;;;;;;;;;;22.30;58.80;;;;;;10244397;28;857;-69
2023/06/13 14:01:38;;;;;;;;;;;22.40;58.90;;;;;;10249895;28;905;-69
2023/06/13 14:06:34;;;;;;;;;;;22.40;58.80;;;;;;10249846;28;775;-68
2023/06/13 14:11:30;;;;;;;;;;;22.40;58.80;;;;;;10249571;28;1906;-69
2023/06/13 14:16:27;;;;;;;;;;;22.40;58.70;;;;;;10250081;28;942;-69
2023/06/13 14:21:22;;;;;;;;;;;22.40;58.70;;;;;;10249152;28;1254;-68
2023/06/13 14:26:39;;;;;;;;;;;22.40;58.70;;;;;;10532926;22;2049;-68
2023/06/13 14:31:38;;;;;;;;;;;22.50;58.80;;;;;;10596849;22;1914;31
2023/06/13 14:36:34;;;;;;;;;;;22.50;58.80;;;;;;10286836;28;1369;-69
2023/06/13 14:41:29;;;;;;;;;;;22.50;58.80;;;;;;10290224;28;829;-70
2023/06/13 14:46:25;;;;;;;;;;;22.50;58.70;;;;;;10288923;28;882;-68
2023/06/13 14:56:35;;;;;;;;;;;22.50;58.80;;;;;;10589820;22;2047;-69
2023/06/13 15:01:32;;;;;;;;;;;22.50;58.70;;;;;;10329067;28;846;-69
2023/06/13 15:06:27;;;;;;;;;;;22.50;58.70;;;;;;10329411;28;860;-69
2023/06/13 15:11:23;;;;;;;;;;;22.50;58.80;;;;;;10327787;28;2030;-69
2023/06/13 15:16:18;;;;;;;;;;;22.50;58.80;;;;;;10328969;28;786;-69
2023/06/13 15:21:14;;;;;;;;;;;22.60;58.80;;;;;;10329283;28;869;-69
2023/06/13 15:26:09;;;;;;;;;;;22.50;58.70;;;;;;10328637;28;855;-67
2023/06/13 15:31:04;;;;;;;;;;;22.50;58.60;;;;;;10328058;28;1944;-67
2023/06/13 15:36:02;;;;;;;;;;;22.60;58.60;;;;;;10327610;28;938;-69
2023/06/13 15:40:58;;;;;;;;;;;22.60;58.70;;;;;;10328046;28;821;-73
2023/06/13 15:45:54;;;;;;;;;;;22.60;59.10;;;;;;10327775;28;805;-74
2023/06/13 15:50:49;;;;;;;;;;;22.60;58.50;;;;;;10326898;28;1905;-73
2023/06/13 15:55:45;;;;;;;;;;;22.70;58.50;;;;;;10326767;28;1355;-74
2023/06/13 16:00:41;;;;;;;;;;;22.70;58.40;;;;;;10326681;28;813;-74
2023/06/13 16:05:37;;;;;;;;;;;22.70;58.50;;;;;;10327131;28;798;-74
2023/06/13 16:10:32;;;;;;;;;;;22.70;58.40;;;;;;10326868;28;1917;-74
2023/06/13 16:15:30;;;;;;;;;;;22.70;58.40;;;;;;10326395;28;797;-71
2023/06/13 16:20:26;;;;;;;;;;;22.70;58.40;;;;;;10326013;28;861;-71
2023/06/13 16:25:21;;;;;;;;;;;22.70;58.40;;;;;;10325534;28;907;-70
2023/06/13 16:30:17;;;;;;;;;;;22.70;58.30;;;;;;10326539;28;1977;-71
2023/06/13 16:35:12;;;;;;;;;;;22.70;58.40;;;;;;10326402;28;841;-71
2023/06/13 16:40:07;;;;;;;;;;;22.70;58.40;;;;;;10325611;28;867;-71
2023/06/13 16:45:03;;;;;;;;;;;22.70;58.40;;;;;;10325725;28;875;-71
2023/06/13 16:49:58;;;;;;;;;;;22.70;58.40;;;;;;10326086;28;1973;-71
2023/06/13 16:54:54;;;;;;;;;;;22.70;58.50;;;;;;10324823;28;1402;-71
2023/06/13 16:59:49;;;;;;;;;;;22.70;58.50;;;;;;10325225;28;792;-71
2023/06/13 17:04:44;;;;;;;;;;;22.80;58.50;;;;;;10325748;28;814;-71
2023/06/13 17:09:40;;;;;;;;;;;22.80;58.50;;;;;;10324947;28;1918;-71
2023/06/13 17:14:35;;;;;;;;;;;22.80;58.50;;;;;;10324954;28;818;-71
2023/06/13 17:19:31;;;;;;;;;;;22.80;58.50;;;;;;10324823;28;975;-71
2023/06/13 17:24:26;;;;;;;;;;;22.80;58.50;;;;;;10324936;28;774;-71
2023/06/13 17:29:22;;;;;;;;;;;22.80;58.50;;;;;;10325191;28;890;-71
2023/06/13 17:34:17;;;;;;;;;;;22.80;58.40;;;;;;10329840;28;1898;-71
2023/06/13 17:39:12;;;;;;;;;;;22.80;58.40;;;;;;10332397;28;1023;-71
2023/06/13 17:44:08;;;;;;;;;;;22.80;58.30;;;;;;10331401;28;912;-71
2023/06/13 17:49:04;;;;;;;;;;;22.80;58.30;;;;;;10331736;28;755;-71
2023/06/13 17:54:00;;;;;;;;;;;22.80;58.30;;;;;;10331999;28;1902;-71
2023/06/13 17:58:55;;;;;;;;;;;22.90;58.30;;;;;;10331429;28;819;-71
2023/06/13 18:03:50;;;;;;;;;;;22.80;58.20;;;;;;10331224;28;863;-71
2023/06/13 18:08:46;;;;;;;;;;;22.80;58.20;;;;;;10331685;28;836;-71
2023/06/13 18:13:42;;;;;;;;;;;22.80;58.30;;;;;;10330884;28;1913;-71
2023/06/13 18:18:38;;;;;;;;;;;22.80;58.20;;;;;;10330359;28;872;-70
2023/06/13 18:23:33;;;;;;;;;;;22.80;58.20;;;;;;10331134;28;825;-69
2023/06/13 18:28:29;;;;;;;;;;;22.90;58.20;;;;;;10330373;28;874;-68
2023/06/13 18:38:44;;;;;;;;;;;22.90;58.20;;;;;;10604818;22;2022;-69
2023/06/13 18:43:42;;;;;;;;;;;22.90;58.20;;;;;;10368866;28;1388;-70
2023/06/13 18:48:40;;;;;;;;;;;22.90;58.30;;;;;;10370861;28;1211;-70
2023/06/13 18:53:36;;;;;;;;;;;22.90;58.10;;;;;;10369703;28;1906;-69
2023/06/13 18:58:31;;;;;;;;;;;22.90;58.10;;;;;;10371044;28;883;-69
2023/06/13 19:03:29;;;;;;;;;;;22.90;58.00;;;;;;10370836;28;915;-69
2023/06/13 19:08:28;;;;;;;;;;;22.90;58.20;;;;;;10369950;28;829;-69
2023/06/13 19:13:29;;;;;;;;;;;22.90;58.10;;;;;;10369729;28;1960;-69
2023/06/13 19:18:27;;;;;;;;;;;22.90;58.10;;;;;;10369314;28;1624;-70
2023/06/13 19:23:26;;;;;;;;;;;22.90;58.20;;;;;;10369348;28;917;-70
2023/06/13 19:28:25;;;;;;;;;;;23.00;58.20;;;;;;10369180;28;862;-70
2023/06/13 19:33:31;;;;;;;;;;;22.90;58.10;;;;;;10368733;28;1894;-70
2023/06/13 19:38:31;;;;;;;;;;;23.00;58.20;;;;;;10368911;28;1369;-70
2023/06/13 19:43:27;;;;;;;;;;;22.90;58.00;;;;;;10370005;28;828;-70
2023/06/13 19:48:22;;;;;;;;;;;23.00;58.20;;;;;;10368056;28;1182;-70
2023/06/13 19:53:21;;;;;;;;;;;22.90;58.00;;;;;;10368796;28;1973;-70
2023/06/13 19:58:18;;;;;;;;;;;23.00;58.00;;;;;;10367399;28;1213;-70
2023/06/13 20:03:20;;;;;;;;;;;23.00;58.10;;;;;;10366813;28;1169;-70
2023/06/13 20:08:16;;;;;;;;;;;22.90;58.00;;;;;;10367931;28;1025;-70
2023/06/13 20:13:14;;;;;;;;;;;22.90;58.00;;;;;;10368055;28;1894;-70
2023/06/13 20:18:12;;;;;;;;;;;23.00;58.10;;;;;;10365874;28;1348;-70
2023/06/13 20:23:08;;;;;;;;;;;22.90;58.00;;;;;;10368751;28;871;-70
2023/06/13 20:28:11;;;;;;;;;;;22.90;58.00;;;;;;10367688;28;841;-70
2023/06/13 20:33:13;;;;;;;;;;;22.90;58.00;;;;;;10366781;28;1894;-70
2023/06/13 20:38:08;;;;;;;;;;;22.90;57.90;;;;;;10366665;28;1321;-70
2023/06/13 20:43:03;;;;;;;;;;;23.00;58.00;;;;;;10366684;28;877;-70
2023/06/13 20:48:08;;;;;;;;;;;23.00;57.60;;;;;;10366876;28;1256;-70
2023/06/13 20:53:04;;;;;;;;;;;23.00;57.90;;;;;;10366959;28;1906;-70
2023/06/13 20:57:59;;;;;;;;;;;23.00;57.90;;;;;;10367945;28;836;-70
2023/06/13 21:03:03;;;;;;;;;;;23.00;57.80;;;;;;10366158;28;1362;-70
2023/06/13 21:08:05;;;;;;;;;;;23.00;57.80;;;;;;10368730;28;1396;-70
2023/06/13 21:13:01;;;;;;;;;;;23.00;57.70;;;;;;10371576;28;1890;-70
2023/06/13 21:17:57;;;;;;;;;;;23.00;57.60;;;;;;10374205;28;1287;-70
2023/06/13 21:22:55;;;;;;;;;;;23.00;57.70;;;;;;10374197;28;897;-70
2023/06/13 21:27:51;;;;;;;;;;;23.00;57.50;;;;;;10373766;28;1336;-70
2023/06/13 21:32:53;;;;;;;;;;;23.00;57.50;;;;;;10374138;28;1890;-70
2023/06/13 21:43:09;;;;;;;;;;;23.00;57.50;;;;;;10373435;28;1530;-70
2023/06/13 21:48:05;;;;;;;;;;;23.00;57.40;;;;;;10373825;28;841;-70
2023/06/13 21:53:04;;;;;;;;;;;23.00;57.30;;;;;;10371499;28;1914;-70
2023/06/13 21:58:13;;;;;;;;;;;23.00;57.30;;;;;;10372268;28;911;-70
2023/06/13 22:03:08;;;;;;;;;;;23.00;57.40;;;;;;10373703;28;1617;-70
2023/06/13 22:08:04;;;;;;;;;;;23.00;57.30;;;;;;10371761;28;1234;-70
2023/06/13 22:13:11;;;;;;;;;;;;;;;;;;;;;
2023/06/13 22:18:16;;;;;;;;;;;23.00;57.30;;;;;;10368351;28;1399;-70
2023/06/13 22:23:21;;;;;;;;;;;23.00;57.10;;;;;;10370585;28;933;-70
2023/06/13 22:39:06;;;;;;;;;;;23.00;56.90;;;;;;10368988;28;1407;-73
2023/06/13 22:44:05;;;;;;;;;;;23.10;56.90;;;;;;10370529;28;994;-73
2023/06/13 22:49:16;;;;;;;;;;;23.10;57.30;;;;;;10371713;28;869;-73
2023/06/13 22:54:14;;;;;;;;;;;23.10;57.10;;;;;;10370533;28;1902;-73
2023/06/13 22:59:12;;;;;;;;;;;23.10;57.00;;;;;;10370209;28;1524;-73
2023/06/13 23:04:18;;;;;;;;;;;23.10;57.10;;;;;;10370113;28;1343;-73
2023/06/13 23:09:13;;;;;;;;;;;23.10;57.00;;;;;;10370256;28;1190;-73
2023/06/13 23:14:25;;;;;;;;;;;23.10;56.90;;;;;;10369262;28;1890;-73
2023/06/13 23:19:24;;;;;;;;;;;23.10;57.10;;;;;;10369305;28;1174;-73
2023/06/13 23:29:51;;;;;;;;;;;23.10;57.00;;;;;;10359408;28;1953;-73
2023/06/13 23:34:49;;;;;;;;;;;23.10;56.90;;;;;;10368631;28;925;-73
2023/06/13 23:39:47;;;;;;;;;;;23.10;57.20;;;;;;10368548;28;1408;-73
2023/06/13 23:44:43;;;;;;;;;;;23.10;57.30;;;;;;10367438;28;1254;-73
2023/06/13 23:49:48;;;;;;;;;;;23.10;57.40;;;;;;10368314;28;2086;-73
